createdAt,value
2019-02-22T00:00:01.493Z,10.38
2019-02-22T00:02:34.500Z,10.39
2019-02-22T00:05:06.787Z,10.28
2019-02-22T00:07:38.310Z,10.12
2019-02-22T00:10:09.716Z,10.02
2019-02-22T00:12:41.133Z,9.99
2019-02-22T00:15:12.416Z,9.95
2019-02-22T00:17:43.865Z,9.89
2019-02-22T00:20:15.156Z,9.85
2019-02-22T00:22:46.596Z,9.86
2019-02-22T00:25:17.995Z,9.87
2019-02-22T00:27:51.401Z,9.83
2019-02-22T00:30:22.731Z,9.84
2019-02-22T00:32:56.320Z,9.84
2019-02-22T00:35:27.678Z,9.81
2019-02-22T00:37:58.990Z,9.75
2019-02-22T00:40:30.242Z,9.70
2019-02-22T00:43:01.663Z,9.70
2019-02-22T00:45:33.062Z,9.72
2019-02-22T00:48:04.615Z,9.70
2019-02-22T00:50:35.958Z,9.68
2019-02-22T00:53:07.284Z,9.66
2019-02-22T00:55:38.554Z,9.61
2019-02-22T00:58:10.010Z,9.59
2019-02-22T01:00:41.414Z,9.52
2019-02-22T01:03:12.907Z,9.48
2019-02-22T01:05:45.973Z,9.51
2019-02-22T01:08:17.289Z,9.48
2019-02-22T01:10:48.617Z,9.41
2019-02-22T01:13:19.938Z,9.38
2019-02-22T01:15:51.332Z,9.34
2019-02-22T01:18:22.650Z,9.29
2019-02-22T01:20:54.832Z,9.30
2019-02-22T01:23:26.345Z,9.29
2019-02-22T01:25:57.696Z,9.34
2019-02-22T01:28:29.092Z,9.31
2019-02-22T01:31:00.380Z,9.33
2019-02-22T01:33:31.837Z,9.33
2019-02-22T01:36:03.204Z,9.28
2019-02-22T01:38:34.663Z,9.27
2019-02-22T01:41:06.095Z,9.25
2019-02-22T01:43:37.467Z,9.25
2019-02-22T01:46:08.744Z,9.22
2019-02-22T01:48:40.125Z,9.24
2019-02-22T01:51:11.531Z,9.26
2019-02-22T01:53:43.901Z,9.26
2019-02-22T01:56:15.514Z,9.23
2019-02-22T01:58:49.622Z,9.22
2019-02-22T02:01:20.885Z,9.21
2019-02-22T02:03:52.272Z,9.21
2019-02-22T02:06:23.759Z,9.26
2019-02-22T02:08:55.053Z,9.33
2019-02-22T02:11:26.619Z,9.38
2019-02-22T02:13:57.981Z,9.46
2019-02-22T02:16:29.289Z,9.50
2019-02-22T02:19:00.576Z,9.51
2019-02-22T02:21:32.073Z,9.54
2019-02-22T02:24:03.434Z,9.52
2019-02-22T02:26:34.818Z,9.47
2019-02-22T02:29:07.409Z,9.43
2019-02-22T02:31:38.725Z,9.44
2019-02-22T02:34:10.074Z,9.43
2019-02-22T02:36:41.510Z,9.41
2019-02-22T02:39:13.003Z,9.45
2019-02-22T02:41:44.320Z,9.43
2019-02-22T02:44:15.802Z,9.44
2019-02-22T02:46:47.098Z,9.50
2019-02-22T02:49:18.359Z,9.52
2019-02-22T02:51:49.749Z,9.55
2019-02-22T02:54:21.102Z,9.57
2019-02-22T02:56:53.460Z,9.58
2019-02-22T02:59:26.555Z,9.57
2019-02-22T03:01:58.123Z,9.55
2019-02-22T03:04:29.464Z,9.58
2019-02-22T03:07:02.494Z,9.59
2019-02-22T03:09:33.943Z,9.58
2019-02-22T03:12:05.498Z,9.57
2019-02-22T03:14:37.010Z,9.56
2019-02-22T03:17:08.356Z,9.58
2019-02-22T03:19:39.689Z,9.63
2019-02-22T03:22:10.959Z,9.63
2019-02-22T03:24:42.347Z,9.58
2019-02-22T03:27:13.628Z,9.58
2019-02-22T03:29:44.991Z,9.66
2019-02-22T03:32:16.377Z,9.64
2019-02-22T03:34:47.867Z,9.66
2019-02-22T03:37:19.259Z,9.66
2019-02-22T03:39:50.663Z,9.63
2019-02-22T03:42:21.930Z,9.60
2019-02-22T03:44:53.411Z,9.58
2019-02-22T03:47:24.771Z,9.58
2019-02-22T03:49:56.089Z,9.59
2019-02-22T03:52:52.348Z,9.61
2019-02-22T03:55:24.647Z,9.61
2019-02-22T03:57:56.363Z,9.67
2019-02-22T04:00:28.642Z,9.68
2019-02-22T04:03:01.055Z,9.71
2019-02-22T04:05:32.374Z,9.71
2019-02-22T04:08:03.672Z,9.72
2019-02-22T04:10:35.124Z,9.72
2019-02-22T04:13:06.747Z,9.72
2019-02-22T04:15:38.432Z,9.74
2019-02-22T04:18:10.932Z,9.76
2019-02-22T04:20:42.338Z,9.84
2019-02-22T04:23:14.207Z,9.89
2019-02-22T04:25:45.649Z,9.92
2019-02-22T04:28:17.094Z,9.97
2019-02-22T04:30:49.511Z,9.96
2019-02-22T04:33:20.929Z,9.97
2019-02-22T04:35:52.193Z,9.95
2019-02-22T04:38:23.525Z,9.98
2019-02-22T04:40:54.896Z,9.94
2019-02-22T04:43:36.181Z,9.93
2019-02-22T04:46:07.553Z,9.93
2019-02-22T04:48:40.576Z,9.94
2019-02-22T04:51:18.053Z,9.96
2019-02-22T04:53:49.539Z,9.98
2019-02-22T04:56:21.109Z,10.05
2019-02-22T04:58:52.569Z,10.04
2019-02-22T05:01:24.756Z,10.05
2019-02-22T05:03:56.348Z,10.09
2019-02-22T05:06:27.721Z,10.09
2019-02-22T05:08:59.269Z,10.09
2019-02-22T05:11:30.786Z,10.07
2019-02-22T05:14:02.257Z,10.09
2019-02-22T05:16:35.303Z,10.07
2019-02-22T05:19:08.235Z,10.05
2019-02-22T05:21:40.324Z,10.02
2019-02-22T05:24:11.616Z,10.03
2019-02-22T05:26:42.980Z,10.02
2019-02-22T05:29:14.424Z,10.03
2019-02-22T05:31:45.829Z,10.07
2019-02-22T05:34:17.626Z,10.06
2019-02-22T05:36:49.139Z,10.05
2019-02-22T05:39:20.816Z,10.02
2019-02-22T05:41:52.247Z,10.01
2019-02-22T05:44:23.589Z,9.99
2019-02-22T05:47:00.412Z,9.99
2019-02-22T05:49:27.882Z,9.99
2019-02-22T05:51:59.327Z,9.98
2019-02-22T05:54:30.657Z,9.99
2019-02-22T05:57:02.073Z,9.99
2019-02-22T05:59:33.347Z,9.95
2019-02-22T06:02:07.058Z,9.91
2019-02-22T06:04:39.508Z,9.89
2019-02-22T06:07:10.897Z,9.84
2019-02-22T06:09:42.249Z,9.81
2019-02-22T06:12:13.679Z,9.82
2019-02-22T06:14:45.164Z,9.78
2019-02-22T06:17:16.460Z,9.82
2019-02-22T06:19:48.066Z,9.79
2019-02-22T06:22:29.123Z,9.77
2019-02-22T06:24:53.372Z,9.75
2019-02-22T06:27:24.757Z,9.73
2019-02-22T06:29:56.226Z,9.71
2019-02-22T06:32:27.680Z,9.68
2019-02-22T06:34:59.027Z,9.64
2019-02-22T06:37:30.433Z,9.62
2019-02-22T06:40:01.871Z,9.58
2019-02-22T06:42:33.294Z,9.54
2019-02-22T06:45:06.695Z,9.53
2019-02-22T06:47:38.991Z,9.56
2019-02-22T06:50:10.476Z,9.56
2019-02-22T06:52:41.797Z,9.58
2019-02-22T06:55:13.138Z,9.60
2019-02-22T06:57:44.557Z,9.63
2019-02-22T07:00:15.972Z,9.66
2019-02-22T07:02:48.365Z,9.67
2019-02-22T07:05:19.636Z,9.69
2019-02-22T07:07:50.982Z,9.69
2019-02-22T07:10:22.399Z,9.70
2019-02-22T07:12:57.062Z,9.69
2019-02-22T07:15:28.600Z,9.69
2019-02-22T07:17:59.926Z,9.68
2019-02-22T07:20:31.173Z,9.69
2019-02-22T07:23:02.683Z,9.70
2019-02-22T07:25:33.968Z,9.70
2019-02-22T07:28:05.281Z,9.69
2019-02-22T07:30:36.555Z,9.69
2019-02-22T07:33:07.866Z,9.68
2019-02-22T07:35:39.140Z,9.67
2019-02-22T07:38:10.526Z,9.65
2019-02-22T07:40:41.918Z,9.66
2019-02-22T07:43:13.307Z,9.68
2019-02-22T07:45:44.575Z,9.69
2019-02-22T07:48:17.048Z,9.71
2019-02-22T07:50:57.037Z,9.72
2019-02-22T07:53:21.692Z,9.74
2019-02-22T07:55:52.952Z,9.78
2019-02-22T07:58:24.257Z,9.86
2019-02-22T08:00:55.745Z,9.94
2019-02-22T08:03:27.196Z,9.99
2019-02-22T08:05:58.548Z,10.03
2019-02-22T08:08:29.864Z,10.10
2019-02-22T08:11:01.355Z,10.16
2019-02-22T08:13:32.876Z,10.22
2019-02-22T08:16:04.247Z,10.30
2019-02-22T08:18:35.797Z,10.39
2019-02-22T08:21:07.148Z,10.48
2019-02-22T08:23:38.481Z,10.55
2019-02-22T08:26:10.352Z,10.64
2019-02-22T08:28:41.705Z,10.71
2019-02-22T08:31:13.209Z,10.79
2019-02-22T08:33:44.474Z,10.84
2019-02-22T08:36:15.897Z,10.88
2019-02-22T08:38:47.242Z,10.94
2019-02-22T08:41:18.662Z,10.98
2019-02-22T08:43:50.062Z,11.01
2019-02-22T08:46:21.451Z,11.04
2019-02-22T08:48:52.824Z,11.06
2019-02-22T08:51:24.223Z,11.10
2019-02-22T08:53:55.747Z,11.14
2019-02-22T08:56:27.245Z,11.17
2019-02-22T08:58:58.600Z,11.22
2019-02-22T09:01:29.943Z,11.23
2019-02-22T09:04:02.119Z,11.27
2019-02-22T09:06:33.532Z,11.31
2019-02-22T09:09:05.743Z,11.37
2019-02-22T09:11:37.594Z,11.44
2019-02-22T09:14:09.158Z,11.50
2019-02-22T09:16:40.454Z,11.52
2019-02-22T09:19:11.975Z,11.49
2019-02-22T09:21:43.303Z,11.53
2019-02-22T09:24:14.674Z,11.60
2019-02-22T09:26:45.936Z,11.63
2019-02-22T09:29:17.335Z,11.65
2019-02-22T09:31:48.695Z,11.64
2019-02-22T09:34:20.089Z,11.66
2019-02-22T09:36:51.369Z,11.71
2019-02-22T09:39:25.037Z,11.76
2019-02-22T09:41:56.351Z,11.80
2019-02-22T09:44:27.683Z,11.83
2019-02-22T09:46:59.036Z,11.84
2019-02-22T09:49:31.479Z,11.88
2019-02-22T09:52:02.828Z,11.85
2019-02-22T09:54:34.375Z,11.88
2019-02-22T09:57:05.990Z,11.90
2019-02-22T09:59:37.387Z,11.98
2019-02-22T10:02:08.821Z,12.03
2019-02-22T10:04:40.294Z,12.15
2019-02-22T10:07:11.747Z,12.20
2019-02-22T10:09:43.225Z,12.25
2019-02-22T10:12:14.591Z,12.27
2019-02-22T10:14:45.947Z,12.38
2019-02-22T10:17:17.334Z,12.49
2019-02-22T10:19:48.757Z,12.54
2019-02-22T10:22:20.086Z,12.55
2019-02-22T10:24:51.570Z,12.53
2019-02-22T10:27:22.936Z,12.55
2019-02-22T10:29:54.424Z,12.56
2019-02-22T10:32:25.792Z,12.68
2019-02-22T10:34:57.144Z,12.71
2019-02-22T10:37:28.537Z,12.74
2019-02-22T10:39:59.983Z,12.87
2019-02-22T10:42:31.812Z,12.99
2019-02-22T10:45:03.197Z,13.05
2019-02-22T10:47:34.846Z,13.00
2019-02-22T10:50:08.877Z,13.08
2019-02-22T10:52:40.236Z,13.08
2019-02-22T10:55:13.523Z,13.19
2019-02-22T10:57:45.010Z,13.24
2019-02-22T11:00:16.672Z,13.19
2019-02-22T11:02:48.152Z,13.07
2019-02-22T11:05:20.537Z,13.08
2019-02-22T11:07:51.830Z,13.19
2019-02-22T11:10:23.209Z,13.34
2019-02-22T11:12:54.585Z,13.39
2019-02-22T11:15:26.055Z,13.50
2019-02-22T11:17:57.407Z,13.56
2019-02-22T11:20:28.770Z,13.62
2019-02-22T11:23:00.052Z,13.68
2019-02-22T11:25:31.574Z,13.75
2019-02-22T11:28:02.914Z,13.69
2019-02-22T11:30:34.403Z,13.83
2019-02-22T11:33:05.999Z,13.92
2019-02-22T11:35:37.408Z,13.80
2019-02-22T11:38:08.778Z,13.75
2019-02-22T11:40:40.173Z,13.71
2019-02-22T11:43:11.609Z,13.51
2019-02-22T11:45:43.022Z,13.60
2019-02-22T11:48:14.291Z,13.76
2019-02-22T11:50:46.690Z,13.70
2019-02-22T11:53:18.133Z,13.52
2019-02-22T11:55:49.515Z,13.34
2019-02-22T11:58:21.956Z,13.37
2019-02-22T12:00:53.628Z,13.31
2019-02-22T12:03:25.322Z,13.41
2019-02-22T12:05:56.882Z,13.51
2019-02-22T12:08:28.361Z,13.74
2019-02-22T12:10:59.926Z,13.95
2019-02-22T12:13:32.277Z,14.18
2019-02-22T12:16:04.023Z,14.25
2019-02-22T12:18:36.574Z,14.19
2019-02-22T12:21:08.275Z,14.31
2019-02-22T12:23:39.635Z,14.46
2019-02-22T12:26:10.956Z,14.35
2019-02-22T12:28:42.263Z,14.28
2019-02-22T12:31:13.603Z,14.31
2019-02-22T12:33:45.968Z,14.29
2019-02-22T12:36:17.285Z,14.23
2019-02-22T12:38:48.640Z,14.22
2019-02-22T12:41:20.101Z,14.17
2019-02-22T12:43:51.454Z,14.16
2019-02-22T12:46:23.851Z,14.09
2019-02-22T12:48:55.192Z,14.07
2019-02-22T12:51:27.269Z,14.10
2019-02-22T12:53:58.529Z,14.09
2019-02-22T12:56:55.967Z,14.14
2019-02-22T12:59:02.966Z,14.21
2019-02-22T13:01:34.271Z,14.20
2019-02-22T13:04:05.676Z,14.18
2019-02-22T13:06:37.930Z,14.03
2019-02-22T13:09:09.488Z,13.89
2019-02-22T13:11:42.285Z,13.87
2019-02-22T13:14:13.954Z,13.88
2019-02-22T13:16:45.460Z,13.91
2019-02-22T13:19:16.797Z,13.91
2019-02-22T13:21:48.153Z,13.80
2019-02-22T13:24:19.418Z,13.81
2019-02-22T13:26:50.752Z,13.83
2019-02-22T13:29:22.086Z,13.84
2019-02-22T13:31:53.473Z,13.85
2019-02-22T13:34:24.812Z,13.90
2019-02-22T13:36:56.254Z,13.94
2019-02-22T13:39:27.599Z,13.91
2019-02-22T13:41:59.040Z,13.93
2019-02-22T13:44:30.410Z,13.84
2019-02-22T13:47:01.872Z,13.87
2019-02-22T13:49:34.313Z,13.91
2019-02-22T13:52:07.073Z,13.93
2019-02-22T13:54:38.338Z,13.92
2019-02-22T13:57:09.758Z,13.90
2019-02-22T13:59:41.110Z,13.84
2019-02-22T14:02:13.413Z,13.81
2019-02-22T14:04:44.927Z,13.85
2019-02-22T14:07:15.207Z,13.82
2019-02-22T14:09:46.536Z,13.87
2019-02-22T14:12:17.815Z,13.88
2019-02-22T14:14:49.497Z,13.88
2019-02-22T14:17:20.817Z,13.87
2019-02-22T14:19:52.179Z,13.81
2019-02-22T14:22:23.578Z,13.75
2019-02-22T14:24:54.903Z,13.64
2019-02-22T14:27:28.401Z,13.58
2019-02-22T14:30:00.017Z,13.58
2019-02-22T14:32:32.327Z,13.53
2019-02-22T14:35:03.709Z,13.43
2019-02-22T14:37:35.218Z,13.34
2019-02-22T14:40:11.041Z,13.28
2019-02-22T14:42:48.560Z,13.25
2019-02-22T14:45:20.024Z,13.25
2019-02-22T14:47:53.060Z,13.19
2019-02-22T14:50:24.545Z,13.17
2019-02-22T14:53:02.466Z,13.14
2019-02-22T14:55:34.155Z,13.09
2019-02-22T14:58:05.795Z,13.07
2019-02-22T15:00:37.278Z,13.00
2019-02-22T15:03:10.843Z,12.98
2019-02-22T15:05:42.227Z,12.93
2019-02-22T15:08:14.054Z,12.88
2019-02-22T15:10:45.410Z,12.86
2019-02-22T15:13:18.949Z,12.85
2019-02-22T15:16:00.252Z,12.81
2019-02-22T15:18:43.062Z,12.78
2019-02-22T15:21:14.416Z,12.74
2019-02-22T15:23:45.813Z,12.68
2019-02-22T15:26:18.258Z,12.64
2019-02-22T15:28:55.408Z,12.64
2019-02-22T15:31:35.818Z,12.61
2019-02-22T15:34:00.879Z,12.59
2019-02-22T15:36:32.407Z,12.55
2019-02-22T15:39:05.032Z,12.49
2019-02-22T15:41:38.060Z,12.47
2019-02-22T15:44:09.571Z,12.46
2019-02-22T15:46:41.065Z,12.45
2019-02-22T15:49:12.656Z,12.44
2019-02-22T15:51:44.190Z,12.43
2019-02-22T15:54:30.829Z,12.40
2019-02-22T15:57:02.374Z,12.40
2019-02-22T15:59:34.269Z,12.36
2019-02-22T16:02:05.900Z,12.31
2019-02-22T16:04:48.699Z,12.27
2019-02-22T16:07:20.117Z,12.23
2019-02-22T16:09:51.692Z,12.19
2019-02-22T16:12:23.103Z,12.18
2019-02-22T16:14:54.556Z,12.18
2019-02-22T16:17:26.102Z,12.14
2019-02-22T16:19:57.444Z,12.14
2019-02-22T16:22:28.880Z,12.10
2019-02-22T16:25:01.402Z,12.06
2019-02-22T16:27:33.563Z,11.99
2019-02-22T16:30:09.758Z,11.91
2019-02-22T16:32:42.842Z,11.83
2019-02-22T16:35:14.426Z,11.75
2019-02-22T16:37:47.500Z,11.67
2019-02-22T16:40:28.647Z,11.60
2019-02-22T16:43:21.117Z,11.52
2019-02-22T16:45:59.502Z,11.50
2019-02-22T16:48:25.708Z,11.44
2019-02-22T16:50:58.655Z,11.40
2019-02-22T16:53:29.925Z,11.34
2019-02-22T16:56:00.405Z,11.26
2019-02-22T16:58:33.018Z,11.20
2019-02-22T17:01:04.562Z,11.13
2019-02-22T17:03:36.464Z,11.10
2019-02-22T17:06:11.095Z,11.06
2019-02-22T17:08:42.615Z,11.01
2019-02-22T17:11:14.474Z,10.91
2019-02-22T17:13:48.147Z,10.85
2019-02-22T17:16:20.795Z,10.79
2019-02-22T17:18:52.339Z,10.70
2019-02-22T17:21:31.002Z,10.64
2019-02-22T17:24:02.416Z,10.52
2019-02-22T17:26:36.018Z,10.48
2019-02-22T17:29:07.571Z,10.42
2019-02-22T17:31:43.732Z,10.38
2019-02-22T17:34:16.981Z,10.29
2019-02-22T17:37:02.503Z,10.22
2019-02-22T17:39:42.481Z,10.14
2019-02-22T17:42:21.472Z,10.04
2019-02-22T17:45:03.788Z,9.98
2019-02-22T17:47:50.583Z,9.89
2019-02-22T17:50:29.393Z,9.79
2019-02-22T17:53:18.078Z,9.72
2019-02-22T17:55:56.387Z,9.65
2019-02-22T17:58:41.750Z,9.59
2019-02-22T18:01:19.355Z,9.52
2019-02-22T18:04:08.747Z,9.41
2019-02-22T18:06:49.191Z,9.32
2019-02-22T18:09:29.340Z,9.25
2019-02-22T18:12:06.360Z,9.15
2019-02-22T18:14:45.829Z,9.10
2019-02-22T18:17:23.084Z,9.02
2019-02-22T18:19:55.601Z,8.94
2019-02-22T18:22:40.599Z,8.87
2019-02-22T18:25:22.670Z,8.79
2019-02-22T18:28:04.198Z,8.70
2019-02-22T18:30:44.025Z,8.62
2019-02-22T18:33:29.789Z,8.54
2019-02-22T18:36:12.097Z,8.50
2019-02-22T18:38:53.886Z,8.47
2019-02-22T18:41:37.523Z,8.42
2019-02-22T18:44:18.926Z,8.38
2019-02-22T18:46:59.222Z,8.36
2019-02-22T18:49:33.134Z,8.32
2019-02-22T18:52:12.217Z,8.30
2019-02-22T18:54:55.284Z,8.26
2019-02-22T18:57:32.560Z,8.23
2019-02-22T19:00:44.121Z,8.19
2019-02-22T19:03:24.354Z,8.16
2019-02-22T19:06:24.607Z,8.12
2019-02-22T19:09:13.168Z,8.08
2019-02-22T19:12:01.592Z,8.05
2019-02-22T19:14:40.835Z,8.01
2019-02-22T19:17:29.898Z,7.92
2019-02-22T19:20:03.328Z,7.89
2019-02-22T19:22:43.224Z,7.87
2019-02-22T19:25:35.421Z,7.80
2019-02-22T19:28:16.411Z,7.78
2019-02-22T19:30:56.134Z,7.70
2019-02-22T19:33:35.373Z,7.68
2019-02-22T19:36:08.901Z,7.58
2019-02-22T19:38:40.382Z,7.51
2019-02-22T19:41:11.930Z,7.41
2019-02-22T19:43:43.378Z,7.41
2019-02-22T19:46:18.222Z,7.43
2019-02-22T19:48:51.197Z,7.44
2019-02-22T19:51:23.459Z,7.44
2019-02-22T19:53:57.487Z,7.44
2019-02-22T19:56:29.027Z,7.42
2019-02-22T19:59:00.361Z,7.39
2019-02-22T20:01:31.707Z,7.32
2019-02-22T20:04:03.165Z,7.30
2019-02-22T20:06:34.642Z,7.24
2019-02-22T20:09:08.118Z,7.18
2019-02-22T20:11:40.615Z,7.14
2019-02-22T20:14:12.018Z,7.15
2019-02-22T20:16:43.687Z,7.15
2019-02-22T20:19:15.174Z,7.13
2019-02-22T20:21:46.529Z,7.12
2019-02-22T20:24:18.009Z,7.07
2019-02-22T20:26:49.497Z,7.03
2019-02-22T20:29:21.055Z,6.98
2019-02-22T20:31:52.467Z,7.00
2019-02-22T20:34:23.987Z,7.03
2019-02-22T20:36:56.443Z,7.04
2019-02-22T20:39:27.923Z,7.04
2019-02-22T20:41:59.260Z,7.03
2019-02-22T20:44:30.631Z,7.01
2019-02-22T20:47:03.214Z,6.99
2019-02-22T20:49:34.595Z,6.97
2019-02-22T20:52:05.953Z,6.96
2019-02-22T20:54:37.466Z,6.93
2019-02-22T20:57:09.857Z,6.91
2019-02-22T20:59:41.280Z,6.90
2019-02-22T21:02:12.691Z,6.87
2019-02-22T21:04:49.641Z,6.87
2019-02-22T21:07:21.115Z,6.86
2019-02-22T21:09:52.564Z,6.86
2019-02-22T21:12:24.187Z,6.86
2019-02-22T21:14:55.700Z,6.82
2019-02-22T21:17:27.198Z,6.80
2019-02-22T21:19:58.516Z,6.76
2019-02-22T21:22:30.005Z,6.73
2019-02-22T21:25:01.354Z,6.68
2019-02-22T21:27:32.784Z,6.67
2019-02-22T21:30:05.463Z,6.61
2019-02-22T21:32:39.594Z,6.58
2019-02-22T21:35:15.448Z,6.56
2019-02-22T21:37:48.624Z,6.57
2019-02-22T21:40:19.986Z,6.59
2019-02-22T21:42:51.351Z,6.61
2019-02-22T21:45:24.031Z,6.64
2019-02-22T21:47:55.882Z,6.62
2019-02-22T21:50:27.452Z,6.59
2019-02-22T21:52:59.029Z,6.56
2019-02-22T21:55:30.382Z,6.48
2019-02-22T21:58:03.330Z,6.45
2019-02-22T22:00:34.963Z,6.46
2019-02-22T22:03:06.288Z,6.49
2019-02-22T22:05:37.840Z,6.50
2019-02-22T22:08:09.145Z,6.49
2019-02-22T22:10:40.466Z,6.48
2019-02-22T22:13:11.730Z,6.42
2019-02-22T22:15:43.194Z,6.41
2019-02-22T22:18:14.599Z,6.38
2019-02-22T22:20:46.760Z,6.37
2019-02-22T22:23:19.012Z,6.37
2019-02-22T22:25:50.370Z,6.34
2019-02-22T22:28:24.951Z,6.28
2019-02-22T22:30:56.278Z,6.22
2019-02-22T22:33:27.573Z,6.19
2019-02-22T22:36:00.021Z,6.17
2019-02-22T22:38:31.290Z,6.18
2019-02-22T22:41:02.714Z,6.17
2019-02-22T22:43:33.983Z,6.16
2019-02-22T22:46:05.436Z,6.11
2019-02-22T22:48:36.884Z,6.08
2019-02-22T22:51:08.247Z,6.06
2019-02-22T22:53:39.513Z,6.03
2019-02-22T22:56:10.891Z,6.01
2019-02-22T22:58:42.164Z,5.99
2019-02-22T23:01:16.101Z,6.00
2019-02-22T23:03:48.800Z,5.98
2019-02-22T23:06:24.459Z,5.93
2019-02-22T23:08:55.922Z,5.89
2019-02-22T23:11:27.465Z,5.85
2019-02-22T23:13:58.901Z,5.81
2019-02-22T23:16:30.403Z,5.79
2019-02-22T23:19:02.869Z,5.79
2019-02-22T23:21:35.788Z,5.75
2019-02-22T23:24:07.118Z,5.73
2019-02-22T23:26:38.496Z,5.70
2019-02-22T23:29:09.934Z,5.64
2019-02-22T23:31:41.381Z,5.62
2019-02-22T23:34:12.812Z,5.61
2019-02-22T23:36:44.208Z,5.63
2019-02-22T23:39:15.545Z,5.67
2019-02-22T23:41:46.980Z,5.66
2019-02-22T23:44:18.340Z,5.65
2019-02-22T23:46:49.812Z,5.63
2019-02-22T23:49:21.155Z,5.63
2019-02-22T23:51:52.688Z,5.63
2019-02-22T23:54:23.967Z,5.60
2019-02-22T23:56:55.334Z,5.59
2019-02-22T23:59:27.712Z,5.60
